Flight Track Log - Related Links

Times and Time Zones

All times are in EDT time to prevent confusion due to time zone crossing. See the SWA718 flight status page for this flight to view local times or setup timezone preferences in your user account.

Time Position Orientation Groundspeed Altitude Reporting Facility
EDT Latitude Longitude Course Direction KTS MPH feet Rate Location/Type
Tue 11:27:35 PM 41.7786 -87.8303 264° West 215 247 3,300  Level Chicago Center
Tue 11:28:36 PM 41.7475 -87.9128 243° Southwest 235 270 4,000 344 Climbing Chicago Center
Tue 11:29:37 PM 41.7297 -88.0214 258° West 257 296 4,000  Level Chicago Center
Tue 11:30:38 PM 41.7561 -88.1069 292° West 254 292 4,000  Level Chicago Center
Tue 11:31:39 PM 41.7803 -88.1942 290° West 254 292 4,000 1,672 Level Chicago Center
Tue 11:32:00 PM 41.7434 -88.3697 264° West  Level FlightAware Approximate
Tue 11:32:40 PM 41.7722 -88.2908 264° West 260 299 7,400  Level Chicago Center
Tue 11:33:41 PM 41.7711 -88.3850 269° West 257 296 11,300 2,244 Climbing Chicago Center
Tue 11:34:43 PM 41.7736 -88.4786 272° West 254 292 12,000 1,561 Climbing Chicago Center
Tue 11:35:44 PM 41.7772 -88.5933 272° West 305 351 14,500 2,803 Climbing Chicago Center
Tue 11:36:45 PM 41.7794 -88.7414 271° West 330 380 17,700 2,852 Climbing Chicago Center
Tue 11:37:46 PM 41.7789 -88.8711 270° West 347 399 20,300 2,459 Climbing Chicago Center
Tue 11:38:47 PM 41.7775 -89.0033 269° West 356 410 22,700 2,951 Climbing Chicago Center
Tue 11:39:48 PM 41.7717 -89.1364 267° West 361 415 26,300 3,197 Climbing Chicago Center
Tue 11:40:49 PM 41.7658 -89.2531 266° West 322 371 29,200 1,967 Climbing Chicago Center
Tue 11:41:50 PM 41.7597 -89.3756 266° West 330 380 30,300 1,426 Climbing Chicago Center
Tue 11:42:51 PM 41.7522 -89.5053 266° West 350 403 32,100 2,066 Climbing Chicago Center
Tue 11:43:52 PM 41.7433 -89.6508 265° West 351 404 34,500 1,918 Climbing Chicago Center
Tue 11:44:53 PM 41.7364 -89.7722 266° West 334 384 36,000 1,180 Climbing Chicago Center
Tue 11:45:54 PM 41.7294 -89.8956 266° West 334 384 36,900 1,033 Climbing Chicago Center
Tue 11:46:55 PM 41.7228 -90.0211 266° West 338 389 38,100 934 Climbing Chicago Center
Tue 11:47:56 PM 41.7150 -90.1469 265° West 342 394 38,800 545 Climbing Chicago Center
Tue 11:48:56 PM 41.7072 -90.2736 265° West 342 394 39,200 496 Climbing Chicago Center
Tue 11:49:57 PM 41.6972 -90.4153 265° West 375 432 39,800 393 Climbing Chicago Center
Tue 11:50:58 PM 41.6878 -90.5511 265° West 371 427 40,000 98 Climbing Chicago Center
Tue 11:51:59 PM 41.6792 -90.6875 265° West 370 426 40,000  Level Chicago Center
Tue 11:53:00 PM 41.6694 -90.8217 265° West 366 421 40,000  Level Chicago Center
Tue 11:54:01 PM 41.6608 -90.9558 265° West 365 420 40,000  Level Chicago Center
Tue 11:55:02 PM 41.6519 -91.0900 265° West 364 419 40,000  Level Chicago Center
Tue 11:56:03 PM 41.6406 -91.2511 265° West 364 419 40,000  Level Chicago Center
Tue 11:57:03 PM 41.6306 -91.3867 264° West 368 423 40,000  Level Chicago Center
Tue 11:58:04 PM 41.6208 -91.5217 265° West 365 420 40,000  Level Chicago Center
Tue 11:59:05 PM 41.6100 -91.6592 264° West 373 429 40,000  Level Chicago Center
Wed 12:00:06 AM 41.5994 -91.7956 264° West 371 427 40,000  Level Chicago Center
Wed 12:01:07 AM 41.5889 -91.9356 264° West 377 434 40,000  Level Chicago Center
Wed 12:02:07 AM 41.5789 -92.0728 264° West 375 432 40,000  Level Chicago Center
Wed 12:03:08 AM 41.5678 -92.2092 264° West 372 428 40,000  Level Chicago Center
Wed 12:04:09 AM 41.5569 -92.3428 264° West 366 421 40,000  Level Chicago Center
Wed 12:05:10 AM 41.5456 -92.4778 264° West 367 422 40,000  Level Chicago Center
Wed 12:06:10 AM 41.5339 -92.6114 263° West 366 421 40,000  Level Chicago Center
Wed 12:06:51 AM 41.5242 -92.7281 264° West 368 423 40,000  Level Minneapolis Center
Wed 12:07:52 AM 41.5131 -92.8642 264° West 370 426 40,000  Level Minneapolis Center
Wed 12:08:52 AM 41.5006 -93.0008 263° West 373 429 40,000  Level Minneapolis Center
Wed 12:09:53 AM 41.4894 -93.1347 264° West 371 427 40,000  Level Minneapolis Center
Wed 12:10:54 AM 41.4769 -93.2703 263° West 371 427 40,000  Level Minneapolis Center
Wed 12:11:54 AM 41.4642 -93.4058 263° West 371 427 40,000  Level Minneapolis Center
Wed 12:12:55 AM 41.4525 -93.5392 263° West 368 423 40,000 -1,131 Level Minneapolis Center
Wed 12:13:56 AM 41.4408 -93.6703 263° West 362 417 37,700 -1,835 Descending Minneapolis Center
Wed 12:14:56 AM 41.4283 -93.7975 263° West 355 409 36,300 -2,231 Descending Minneapolis Center
Wed 12:15:57 AM 41.4175 -93.9136 263° West 329 379 33,200 -3,025 Descending Minneapolis Center
Wed 12:16:57 AM 41.4061 -94.0381 263° West 336 387 30,200 -2,975 Descending Minneapolis Center
Wed 12:17:58 AM 41.3953 -94.1586 263° West 334 384 27,200 -2,777 Descending Minneapolis Center
Wed 12:18:58 AM 41.3800 -94.3006 262° West 333 383 24,600 -2,678 Descending Minneapolis Center
Wed 12:19:59 AM 41.3681 -94.4128 262° West 314 361 21,800 -2,281 Descending Minneapolis Center
Wed 12:20:59 AM 41.3581 -94.5236 263° West 306 352 20,000 -1,800 Descending Minneapolis Center
Wed 12:21:59 AM 41.3469 -94.6283 262° West 294 338 18,200 -1,736 Descending Minneapolis Center
Wed 12:23:00 AM 41.3364 -94.7336 262° West 290 334 16,500 -1,091 Descending Minneapolis Center
Wed 12:24:00 AM 41.3261 -94.8411 263° West 291 335 16,000 -248 Descending Minneapolis Center
Wed 12:25:01 AM 41.3153 -94.9456 262° West 289 333 16,000 -70 Level Minneapolis Center
Wed 12:25:26 AM 41.3206 -95.0003 277° West 286 329 15,900 -300 Descending Minneapolis Center
Wed 12:26:01 AM 41.3039 -95.0497 246° West 286 329 15,700 -2,557 Descending Minneapolis Center
Wed 12:26:27 AM 41.3092 -95.1017 278° West 276 318 13,300 -4,328 Descending Minneapolis Center
Wed 12:27:02 AM 41.2919 -95.1578 248° West 293 337 11,300 -2,900 Descending Minneapolis Center
Wed 12:27:27 AM 41.2947 -95.2203 273° West 332 382 10,400 -1,200 Descending Minneapolis Center
Wed 12:28:02 AM 41.2797 -95.2736 249° West 308 354 10,100 -1,279 Descending Minneapolis Center
Wed 12:28:28 AM 41.2833 -95.3244 275° West 280 322 9,100 -1,770 Descending Minneapolis Center
Wed 12:29:03 AM 41.2689 -95.3761 250° West 298 343 8,300 -1,869 Descending Minneapolis Center
Wed 12:29:29 AM 41.2678 -95.4317 268° West 267 307 7,200 -1,900 Descending Minneapolis Center
Wed 12:30:03 AM 41.2583 -95.4714 252° West 280 322 6,400 -1,818 Descending Minneapolis Center
Wed 12:30:35 AM 41.2564 -95.5358 268° West 263 303 5,200 -1,770 Descending Minneapolis Center
Wed 12:31:04 AM 41.2481 -95.5678 251° West 269 310 4,600 -1,475 Descending Minneapolis Center
Wed 12:31:36 AM 41.2439 -95.6289 265° West 270 311 3,700 -1,300 Descending Minneapolis Center
Wed 12:32:04 AM 41.2372 -95.6628 255° West 265 305 3,300 -787 Descending Minneapolis Center
Wed 12:32:37 AM 41.2333 -95.7189 265° West 248 285 2,900 -197 Descending Minneapolis Center
Wed 12:33:05 AM 41.2278 -95.7497 257° West 253 291 3,100  Climbing Minneapolis Center
Wed 12:33:37 AM 41.2233 -95.7892 261° West 148 170 2,900 -400 Descending Minneapolis Center
Wed 12:34:05 AM 41.2225 -95.8036 266° West 185 213 2,700 -393 Descending Minneapolis Center
Wed 12:34:38 AM 41.2369 -95.8347 302° West 121 139 2,500 -492 Descending Minneapolis Center
Wed 12:35:06 AM 41.2450 -95.8408 330° Northwest 150 173 2,200 -800 Descending Minneapolis Center
Wed 12:35:38 AM 41.2636 -95.8622 319° Northwest 113 130 1,700 -600 Descending Minneapolis Center
Wed 12:36:06 AM 41.2722 -95.8661 341° North 130 150 1,600 -404 Descending Minneapolis Center
Wed 12:37:07 AM 41.3042 -95.8961 325° Northwest 127 146 1,100 -492 Descending Minneapolis Center

Login

Don't have an account? Register now (free) for customized features, flight alerts, and more!